Time;durP1;ratioP1;P1;durP2;ratioP2;P2;SDS_P1;SDS_P2;PMS_P1;PMS_P2;Temp;Humidity;BMP_temperature;BMP_pressure;BME280_temperature;BME280_humidity;BME280_pressure;Samples;Min_cycle;Max_cycle;Signal;HPM_P1;HPM_P2
2022/01/23 00:05:26;;;;;;;42.00;18.03;;;;;;;-2.90;90.76;100049.00;4329504;80;21770;-89
2022/01/23 00:11:29;;;;;;;47.17;17.97;;;;;;;-2.92;90.80;100050.59;4345175;81;21103;-88
2022/01/23 00:17:47;;;;;;;45.07;16.97;;;;;;;-2.94;90.74;100047.37;4262450;81;21097;-88
2022/01/23 00:36:15;;;;;;;44.53;16.67;;;;;;;-2.97;90.60;100057.79;4252599;82;21051;-88
2022/01/23 00:42:28;;;;;;;45.43;18.83;;;;;;;-2.97;90.58;100061.81;4328498;80;21085;-89
2022/01/23 00:55:10;;;;;;;45.87;18.50;;;;;;;-3.03;90.54;100052.14;4330852;80;21091;-89
2022/01/23 01:01:14;;;;;;;44.13;16.20;;;;;;;-3.10;90.56;100056.39;4319300;80;22248;-89
2022/01/23 01:07:18;;;;;;;44.30;16.67;;;;;;;-3.12;90.57;100049.17;4334617;80;21047;-89
2022/01/23 01:13:29;;;;;;;38.55;14.78;;;;;;;-3.15;90.57;100053.70;4335058;80;21025;-88
2022/01/23 01:32:26;;;;;;;44.40;16.53;;;;;;;-3.18;90.51;100045.38;4319591;80;21075;-89
2022/01/23 01:38:31;;;;;;;41.07;16.10;;;;;;;-3.21;90.47;100050.18;4333945;80;21535;-88
2022/01/23 01:44:34;;;;;;;31.17;15.07;;;;;;;-3.23;90.43;100048.29;4311719;80;21052;-89
2022/01/23 01:50:59;;;;;;;44.23;16.17;;;;;;;-3.24;90.30;100048.03;4335088;80;21611;-89
2022/01/23 01:57:13;;;;;;;41.17;15.40;;;;;;;-3.29;90.36;100042.64;4353570;81;21048;-89
2022/01/23 02:03:37;;;;;;;41.07;15.53;;;;;;;-3.30;90.46;100049.59;4322914;81;21140;-88
2022/01/23 02:22:57;;;;;;;38.90;14.40;;;;;;;-3.39;90.28;100055.98;4328344;80;21073;-89
2022/01/23 03:02:25;;;;;;;39.97;17.13;;;;;;;-3.54;90.18;100086.64;4178026;83;21610;-89
2022/01/23 03:29:06;;;;;;;51.43;21.20;;;;;;;-3.77;89.95;100089.69;4338961;80;21567;-88
2022/01/23 03:35:07;;;;;;;41.80;19.30;;;;;;;-3.82;89.98;100092.87;4328003;80;21497;-90
2022/01/23 03:41:15;;;;;;;49.57;21.30;;;;;;;-3.83;89.93;100086.70;4335243;81;21039;-90
2022/01/23 03:53:54;;;;;;;52.23;22.67;;;;;;;-3.88;89.75;100089.32;4322749;80;21623;-88
2022/01/23 03:59:57;;;;;;;51.63;22.73;;;;;;;-3.92;89.80;100080.20;4316990;81;21080;-90
2022/01/23 04:06:05;;;;;;;55.37;22.17;;;;;;;-3.93;89.69;100081.80;4327808;80;21201;-89
2022/01/23 04:12:30;;;;;;;52.40;24.57;;;;;;;-3.96;89.70;100074.28;4331068;80;21093;-88
2022/01/23 04:31:54;;;;;;;54.47;25.90;;;;;;;-4.03;89.74;100114.61;4333640;81;21137;-88
2022/01/23 05:10:59;;;;;;;71.93;31.90;;;;;;;-4.14;89.73;100140.16;4314195;81;21024;-89
2022/01/23 05:17:28;;;;;;;75.90;33.90;;;;;;;-4.16;89.77;100145.75;4336493;80;21004;-88
2022/01/23 05:23:38;;;;;;;72.13;31.27;;;;;;;-4.16;89.81;100145.75;4325756;81;21091;-89
2022/01/23 05:29:48;;;;;;;73.03;32.00;;;;;;;-4.18;89.75;100145.73;4327182;80;21735;-88
2022/01/23 05:35:57;;;;;;;72.10;32.27;;;;;;;-4.19;90.01;100146.78;4326459;80;21130;-89
2022/01/23 05:42:20;;;;;;;62.60;30.03;;;;;;;-4.18;90.02;100148.41;4338494;80;21048;-89
2022/01/23 05:48:29;;;;;;;79.50;34.33;;;;;;;-4.18;90.05;100149.20;4342445;80;21608;-89
2022/01/23 05:54:35;;;;;;;74.37;34.63;;;;;;;-4.20;90.07;100157.20;4288413;80;20997;-89
2022/01/23 06:00:59;;;;;;;76.83;34.93;;;;;;;-4.19;90.26;100155.62;4329856;80;21048;-89
2022/01/23 06:07:00;;;;;;;86.17;36.70;;;;;;;-4.18;90.22;100171.92;4336791;80;21219;-89
2022/01/23 06:13:03;;;;;;;86.60;37.37;;;;;;;-4.18;90.14;100157.22;4300421;80;21050;-88
2022/01/23 06:19:06;;;;;;;78.07;34.67;;;;;;;-4.17;90.11;100155.36;4341239;80;21373;-89
2022/01/23 06:32:07;;;;;;;75.97;34.17;;;;;;;-4.21;90.08;100187.14;4316082;80;21039;-89
2022/01/23 06:38:21;;;;;;;76.97;34.37;;;;;;;-4.16;90.26;100179.70;4324397;80;21940;-88
2022/01/23 06:44:29;;;;;;;74.77;35.63;;;;;;;-4.09;90.23;100187.02;4329159;80;21118;-88
2022/01/23 06:50:31;;;;;;;76.17;36.03;;;;;;;-4.05;90.17;100197.47;4316844;80;21496;-88
2022/01/23 06:56:33;;;;;;;70.17;30.73;;;;;;;-4.00;90.29;100203.70;4251243;82;21631;-88
2022/01/23 07:02:34;;;;;;;84.37;36.70;;;;;;;-3.88;90.37;100208.37;4308429;80;21066;-89
2022/01/23 07:09:00;;;;;;;61.42;26.35;;;;;;;-3.83;90.16;100216.45;4314141;80;21252;-88
2022/01/23 07:15:36;;;;;;;58.28;26.82;;;;;;;-3.77;90.37;100225.33;4309086;80;21162;-88
2022/01/23 07:21:57;;;;;;;77.93;36.67;;;;;;;-3.77;90.26;100230.67;4323466;79;21053;-89
2022/01/23 07:28:11;;;;;;;72.67;35.10;;;;;;;-3.72;90.33;100243.59;4329208;80;21024;-88
2022/01/23 07:34:13;;;;;;;78.90;36.13;;;;;;;-3.65;90.34;100240.73;4335277;79;21063;-88
2022/01/23 07:40:36;;;;;;;81.92;36.48;;;;;;;-3.59;90.34;100255.77;4338238;79;21636;-89
2022/01/23 07:46:47;;;;;;;76.57;36.03;;;;;;;-3.52;90.33;100261.72;4336493;79;21060;-88
2022/01/23 07:52:51;;;;;;;82.63;37.13;;;;;;;-3.46;90.24;100274.12;4332709;80;21011;-88
2022/01/23 07:59:24;;;;;;;81.10;38.07;;;;;;;-3.40;90.34;100282.47;4343187;79;21060;-89
2022/01/23 08:05:27;;;;;;;81.30;38.83;;;;;;;-3.34;90.37;100289.48;4300753;80;21090;-89
2022/01/23 08:11:36;;;;;;;88.40;39.33;;;;;;;-3.29;90.40;100308.29;4308178;80;21126;-88
2022/01/23 08:17:37;;;;;;;83.30;39.37;;;;;;;-3.25;90.39;100321.44;4324216;79;21136;-88
2022/01/23 08:23:42;;;;;;;88.50;40.73;;;;;;;-3.17;90.29;100326.86;4323472;79;22004;-89
2022/01/23 08:29:50;;;;;;;83.77;39.40;;;;;;;-3.12;90.28;100335.77;4332828;80;21015;-88
2022/01/23 08:35:56;;;;;;;83.07;39.57;;;;;;;-3.08;90.10;100332.03;4332579;80;21047;-88
2022/01/23 08:41:58;;;;;;;84.30;40.97;;;;;;;-3.01;90.19;100334.80;4333983;79;21654;-88
2022/01/23 08:48:10;;;;;;;82.13;39.70;;;;;;;-2.94;90.20;100343.98;4334728;79;21081;-88
2022/01/23 08:54:26;;;;;;;86.80;41.03;;;;;;;-2.84;90.16;100336.83;4348516;79;21083;-88
2022/01/23 09:00:38;;;;;;;65.30;34.60;;;;;;;-2.70;90.20;100335.86;4336420;80;21115;-88
2022/01/23 09:06:40;;;;;;;109.70;52.60;;;;;;;-2.54;90.01;100354.50;4335658;79;21785;-88
2022/01/23 09:13:11;;;;;;;86.33;39.77;;;;;;;-2.50;89.89;100353.44;4346928;79;21032;-88
2022/01/23 09:19:11;;;;;;;88.27;39.23;;;;;;;-2.50;89.60;100357.45;4341001;80;21043;-89
2022/01/23 09:25:13;;;;;;;83.03;38.93;;;;;;;-2.54;89.43;100362.55;4330388;79;21584;-89
2022/01/23 09:31:27;;;;;;;85.17;41.53;;;;;;;-2.46;89.68;100351.88;4334413;80;22077;-88
2022/01/23 09:37:21;;;;;;;89.30;42.63;;;;;;;-2.35;89.77;100350.88;4337647;79;21055;-89
2022/01/23 09:43:44;;;;;;;87.57;39.13;;;;;;;-2.27;89.68;100353.88;4345334;79;21028;-88
2022/01/23 09:56:27;;;;;;;94.87;42.73;;;;;;;-2.21;89.58;100362.77;4320843;79;21535;-89
2022/01/23 10:02:34;;;;;;;92.20;44.30;;;;;;;-2.07;89.53;100360.70;4311191;79;21081;-88
2022/01/23 10:08:43;;;;;;;94.03;43.15;;;;;;;-1.90;89.45;100351.15;4329012;79;21553;-88
2022/01/23 10:14:57;;;;;;;92.53;41.95;;;;;;;-1.50;89.31;100347.84;4327972;80;21083;-88
2022/01/23 10:20:59;;;;;;;77.43;37.90;;;;;;;-1.29;89.35;100355.69;4342460;79;21123;-89
2022/01/23 10:27:13;;;;;;;88.65;41.02;;;;;;;-0.98;89.08;100356.02;4331014;79;21091;-89
2022/01/23 10:33:41;;;;;;;90.70;41.75;;;;;;;-0.94;88.35;100358.98;4356043;79;21052;-89
2022/01/23 10:39:59;;;;;;;94.37;42.50;;;;;;;-0.81;88.85;100362.48;4320590;79;21110;-89
2022/01/23 10:46:46;;;;;;;89.62;43.08;;;;;;;-0.63;88.73;100353.38;4327601;79;21047;-89
2022/01/23 10:52:48;;;;;;;88.00;39.65;;;;;;;-0.57;87.97;100352.30;4226929;82;21060;-89
2022/01/23 11:06:00;;;;;;;90.60;43.10;;;;;;;-0.56;88.02;100347.17;4089498;84;21114;-88
2022/01/23 11:12:12;;;;;;;86.22;40.90;;;;;;;-0.49;87.96;100342.88;4097778;84;21147;-89
2022/01/23 11:18:10;;;;;;;81.22;37.15;;;;;;;-0.55;87.66;100343.95;4107830;84;21156;-89
2022/01/23 11:30:59;;;;;;;79.62;34.65;;;;;;;-0.41;87.86;100347.16;4288533;80;21573;-88
2022/01/23 11:50:45;;;;;;;81.00;39.23;;;;;;;-0.48;87.19;100354.70;4308577;79;21037;-88
2022/01/23 11:56:57;;;;;;;87.85;39.63;;;;;;;-0.36;87.11;100323.50;4322938;79;21130;-89
2022/01/23 12:03:20;;;;;;;83.62;40.08;;;;;;;-0.36;87.11;100323.50;4353022;79;21051;-89
2022/01/23 12:09:21;;;;;;;91.70;43.05;;;;;;;-0.16;86.95;100348.46;4229336;81;21063;-89
2022/01/23 12:29:27;;;;;;;80.10;36.40;;;;;;;0.03;86.57;100350.84;4323157;80;21075;-89
2022/01/23 12:35:45;;;;;;;75.52;37.10;;;;;;;0.00;86.30;100362.16;4315856;79;21086;-89
2022/01/23 12:41:55;;;;;;;76.45;37.25;;;;;;;0.06;86.21;100363.51;4322121;80;21594;-88
2022/01/23 12:55:00;;;;;;;72.05;34.65;;;;;;;0.03;86.00;100365.66;4338472;80;21506;-89
2022/01/23 13:01:09;;;;;;;73.80;34.25;;;;;;;0.09;86.04;100359.73;4307662;80;21485;-89
2022/01/23 13:13:37;;;;;;;67.80;33.53;;;;;;;-0.36;84.83;100350.41;4319128;79;21102;-88
2022/01/23 13:33:13;;;;;;;71.47;34.53;;;;;;;-0.50;85.73;100375.68;4335291;80;21083;-90
2022/01/23 13:39:16;;;;;;;75.20;34.48;;;;;;;-0.51;85.58;100382.14;4315910;80;22069;-89
2022/01/23 13:52:42;;;;;;;72.15;32.67;;;;;;;-0.51;85.92;100379.45;4297790;80;21946;-89
2022/01/23 13:58:51;;;;;;;71.62;35.33;;;;;;;-0.43;85.87;100375.41;4347051;80;21047;-89
2022/01/23 14:05:31;;;;;;;80.62;35.10;;;;;;;-0.37;85.80;100378.36;4319693;80;21061;-88
2022/01/23 14:18:31;;;;;;;120.37;50.98;;;;;;;-0.39;85.47;100374.59;4141073;81;138794;-89
2022/01/23 14:38:26;;;;;;;82.33;34.40;;;;;;;-0.60;85.90;100396.39;4106803;84;21254;-89
2022/01/23 14:44:28;;;;;;;79.75;35.28;;;;;;;-0.67;85.48;100407.41;4094313;84;21611;-89
2022/01/23 14:50:32;;;;;;;78.90;36.80;;;;;;;-0.67;85.48;100407.41;4089653;84;21084;-89
2022/01/23 15:10:04;;;;;;;88.85;42.88;;;;;;;-0.58;85.83;100433.25;4090945;84;21661;-89
2022/01/23 15:16:20;;;;;;;88.67;39.58;;;;;;;-0.65;85.99;100438.06;4089491;84;21098;-89
2022/01/23 15:22:23;;;;;;;91.28;42.30;;;;;;;-0.90;85.91;100413.30;4089074;84;21124;-88
2022/01/23 15:28:25;;;;;;;96.20;43.85;;;;;;;-0.73;85.90;100463.61;4084313;84;21142;-88
2022/01/23 15:34:41;;;;;;;97.20;43.28;;;;;;;-0.79;86.02;100462.52;4093451;85;21067;-89
2022/01/23 15:40:43;;;;;;;92.05;42.78;;;;;;;-0.84;85.92;100471.37;4094391;84;21074;-89
2022/01/23 15:46:49;;;;;;;91.05;41.88;;;;;;;-1.10;86.52;100490.37;4095085;84;21079;-88
2022/01/23 15:53:39;;;;;;;99.42;47.30;;;;;;;-1.10;86.52;100490.37;3983894;86;21460;-89
2022/01/23 15:59:40;;;;;;;102.70;46.40;;;;;;;-1.14;86.76;100505.41;4020229;85;21223;-88
2022/01/23 16:05:42;;;;;;;109.78;49.45;;;;;;;-1.11;86.81;100494.92;4033993;85;21297;-89
2022/01/23 16:11:49;;;;;;;105.27;47.35;;;;;;;-1.11;86.81;100494.92;4014347;86;21051;-88
2022/01/23 16:17:52;;;;;;;104.63;48.70;;;;;;;-1.04;86.77;100510.29;4114183;84;21075;-89
2022/01/23 16:23:53;;;;;;;100.65;46.65;;;;;;;-1.04;86.77;100510.29;4102720;84;21177;-89
2022/01/23 16:29:54;;;;;;;109.90;48.10;;;;;;;-1.08;87.01;100517.80;4109784;84;21114;-88
2022/01/23 16:35:56;;;;;;;96.45;45.00;;;;;;;-1.05;86.97;100526.13;4100556;84;21087;-89
2022/01/23 16:41:58;;;;;;;92.85;44.33;;;;;;;-1.16;87.65;100529.04;4110277;84;112979;-89
2022/01/23 16:47:59;;;;;;;107.43;52.05;;;;;;;-1.16;87.65;100529.04;4119323;84;21632;-88
2022/01/23 16:54:04;;;;;;;95.03;46.13;;;;;;;-1.28;87.50;100536.51;4104367;84;21053;-88
2022/01/23 17:00:06;;;;;;;113.30;49.60;;;;;;;-1.32;87.40;100530.84;4112853;84;21092;-89
2022/01/23 17:06:20;;;;;;;106.60;49.45;;;;;;;-1.30;87.62;100527.34;4099782;85;21103;-89
2022/01/23 17:12:26;;;;;;;111.08;48.80;;;;;;;-1.33;87.60;100526.52;4123647;84;21099;-88
2022/01/23 17:18:28;;;;;;;110.57;51.18;;;;;;;-1.33;87.62;100531.10;4119422;84;21422;-89
2022/01/23 17:24:32;;;;;;;106.32;48.58;;;;;;;-1.44;87.59;100529.42;4126254;84;21106;-89
2022/01/23 17:31:11;;;;;;;120.13;53.90;;;;;;;-1.44;87.84;100537.48;4117453;84;21156;-88
2022/01/23 17:37:13;;;;;;;112.70;51.58;;;;;;;-1.36;87.93;100535.66;4117508;84;21108;-88
2022/01/23 17:50:04;;;;;;;123.30;55.53;;;;;;;-1.34;87.72;100542.37;4115278;84;21064;-88
2022/01/23 17:56:01;;;;;;;117.90;55.03;;;;;;;-1.44;87.88;100546.88;4085318;85;21126;-88
2022/01/23 18:02:15;;;;;;;123.15;53.83;;;;;;;-1.40;88.18;100551.47;4104601;85;21108;-88
2022/01/23 18:08:22;;;;;;;113.08;50.63;;;;;;;-1.48;88.06;100541.21;4109433;85;21062;-88
2022/01/23 18:14:29;;;;;;;141.03;66.53;;;;;;;-1.55;88.21;100551.91;4109337;84;21083;-88
2022/01/23 18:21:02;;;;;;;132.55;66.02;;;;;;;-1.58;88.40;100559.93;4129365;84;21851;-88
2022/01/23 18:27:57;;;;;;;128.90;60.98;;;;;;;-1.48;88.56;100561.88;4116626;85;21037;-88
2022/01/23 18:34:13;;;;;;;134.18;65.55;;;;;;;-1.55;88.47;100568.81;4119158;84;21129;-88
2022/01/23 18:40:16;;;;;;;158.63;69.35;;;;;;;-1.52;88.47;100572.34;4093538;84;21064;-89
2022/01/23 18:46:18;;;;;;;161.57;70.07;;;;;;;-1.51;88.46;100567.77;4139611;84;21025;-88
2022/01/23 18:52:20;;;;;;;152.53;72.90;;;;;;;-1.45;88.74;100567.55;4129376;84;21943;-87
2022/01/23 18:58:39;;;;;;;166.25;77.67;;;;;;;-1.46;88.33;100575.34;4064517;86;21030;-88
2022/01/23 19:05:03;;;;;;;152.15;70.37;;;;;;;-1.45;88.54;100591.72;4112319;84;21076;-88
2022/01/23 19:24:40;;;;;;;144.67;69.97;;;;;;;-1.52;88.52;100605.92;4110306;84;21143;-89
2022/01/23 19:30:42;;;;;;;176.93;79.43;;;;;;;-1.58;88.50;100597.52;4110366;85;21651;-88
2022/01/23 19:36:56;;;;;;;139.60;66.07;;;;;;;-1.60;88.59;100609.86;4116488;84;21060;-87
2022/01/23 19:49:46;;;;;;;151.33;60.00;;;;;;;-1.68;88.62;100607.64;4109602;85;21102;-88
2022/01/23 19:56:01;;;;;;;81.63;35.47;;;;;;;-1.70;88.59;100608.98;4104601;85;21468;-88
2022/01/23 20:02:09;;;;;;;66.20;26.40;;;;;;;-1.71;88.14;100607.38;4110524;84;21090;-88
2022/01/23 20:08:14;;;;;;;48.73;22.20;;;;;;;-1.73;87.70;100618.38;4101569;84;21180;-87
2022/01/23 20:14:17;;;;;;;46.43;19.53;;;;;;;-1.70;87.35;100609.80;4109726;84;21667;-88
2022/01/23 20:20:20;;;;;;;47.43;21.17;;;;;;;-1.67;87.08;100604.44;4124480;84;21025;-87
2022/01/23 20:26:30;;;;;;;49.83;20.77;;;;;;;-1.69;86.80;100615.44;4115123;84;21117;-88
2022/01/23 20:32:47;;;;;;;60.28;22.67;;;;;;;-1.70;86.69;100630.46;4103564;84;21067;-87
2022/01/23 20:38:53;;;;;;;71.23;32.37;;;;;;;-1.79;86.81;100628.79;4107345;85;21039;-87
2022/01/23 20:44:53;;;;;;;43.80;19.67;;;;;;;-1.91;86.11;100627.33;4108477;84;21033;-87
2022/01/23 20:51:00;;;;;;;44.03;19.00;;;;;;;-1.94;86.22;100643.39;4106985;84;21060;-87
2022/01/23 20:57:08;;;;;;;50.67;20.90;;;;;;;-1.83;86.07;100659.05;4111477;84;21007;-88
2022/01/23 21:03:19;;;;;;;57.77;23.80;;;;;;;-1.78;85.59;100659.11;4137948;84;21087;-88
2022/01/23 21:42:11;;;;;;;61.77;25.47;;;;;;;-1.98;84.81;100682.55;4102893;85;21047;-88
2022/01/23 21:48:16;;;;;;;50.00;20.52;;;;;;;-2.06;84.81;100680.30;4105465;85;21003;-88
2022/01/23 21:54:18;;;;;;;43.00;19.63;;;;;;;-2.05;84.51;100681.92;4033776;86;21111;-88
2022/01/23 22:00:19;;;;;;;54.27;23.97;;;;;;;-2.05;84.26;100696.67;4035576;85;21573;-88
2022/01/23 22:06:27;;;;;;;61.50;22.37;;;;;;;-2.08;84.20;100701.20;4015828;86;21609;-88
2022/01/23 22:18:35;;;;;;;88.93;34.77;;;;;;;-2.11;83.91;100696.86;4017394;86;21586;-87
2022/01/23 22:30:57;;;;;;;48.13;18.90;;;;;;;-2.17;83.90;100713.97;4023496;86;21091;-88
2022/01/23 22:36:59;;;;;;;42.47;17.90;;;;;;;-2.20;83.75;100717.98;4025606;86;21704;-88
2022/01/23 22:43:00;;;;;;;41.07;17.40;;;;;;;-2.24;83.70;100714.16;4007818;86;21124;-88
2022/01/23 22:49:13;;;;;;;32.97;15.73;;;;;;;-2.34;83.61;100719.93;4109673;85;21612;-87
2022/01/23 22:55:16;;;;;;;43.07;18.57;;;;;;;-2.30;83.73;100709.80;4122778;84;21663;-88
2022/01/23 23:01:18;;;;;;;101.30;32.40;;;;;;;-2.18;83.43;100713.70;4111687;84;21186;-88
2022/01/23 23:07:20;;;;;;;89.23;29.23;;;;;;;-2.24;83.21;100712.81;4106877;84;21068;-88
2022/01/23 23:13:22;;;;;;;50.07;20.20;;;;;;;-2.33;83.32;100722.88;4107137;85;21128;-87
2022/01/23 23:19:23;;;;;;;51.17;17.90;;;;;;;-2.47;83.25;100730.50;4112977;84;21053;-87
2022/01/23 23:25:36;;;;;;;54.53;21.60;;;;;;;-2.48;83.08;100732.91;4114575;84;21061;-87
2022/01/23 23:31:38;;;;;;;77.63;25.77;;;;;;;-2.51;82.97;100732.58;4109332;84;21601;-87
2022/01/23 23:37:39;;;;;;;62.43;22.13;;;;;;;-2.52;82.82;100745.16;4097115;84;21091;-87
2022/01/23 23:44:08;;;;;;;47.67;20.15;;;;;;;-2.53;82.64;100738.71;4116149;84;21095;-87
2022/01/23 23:50:06;;;;;;;96.13;34.67;;;;;;;-2.54;82.51;100731.22;4102578;84;21657;-87
2022/01/23 23:56:07;;;;;;;49.13;19.27;;;;;;;-2.52;82.37;100724.27;4115365;84;21964;-87
